Time;durP1;ratioP1;P1;durP2;ratioP2;P2;SDS_P1;SDS_P2;PMS_P1;PMS_P2;Temp;Humidity;BMP_temperature;BMP_pressure;BME280_temperature;BME280_humidity;BME280_pressure;Samples;Min_cycle;Max_cycle;Signal;HPM_P1;HPM_P2
2021/06/10 00:01:52;;;;;;;51.23;20.73;;;14.10;99.90;;;;;;5011141;28;20636;-56
2021/06/10 00:04:18;;;;;;;56.50;22.80;;;14.10;99.90;;;;;;5028408;28;20203;-55
2021/06/10 00:06:43;;;;;;;55.40;22.63;;;14.10;99.90;;;;;;4996108;28;20634;-55
2021/06/10 00:09:09;;;;;;;60.70;20.93;;;14.10;99.90;;;;;;5023628;28;20247;-55
2021/06/10 00:11:35;;;;;;;58.80;22.17;;;14.10;99.90;;;;;;5022675;28;20195;-56
2021/06/10 00:14:00;;;;;;;53.80;18.10;;;14.10;99.90;;;;;;5038829;28;20196;-55
2021/06/10 00:16:26;;;;;;;40.17;17.97;;;14.10;99.90;;;;;;5024453;28;20624;-56
2021/06/10 00:18:53;;;;;;;35.33;19.10;;;14.10;99.90;;;;;;5007023;28;20603;-55
2021/06/10 00:21:19;;;;;;;44.30;20.00;;;14.10;99.90;;;;;;5013252;28;20176;-56
2021/06/10 00:23:45;;;;;;;61.47;22.40;;;14.10;99.90;;;;;;5010654;28;20458;-54
2021/06/10 00:26:10;;;;;;;46.40;21.63;;;14.10;99.90;;;;;;5007770;28;20282;-55
2021/06/10 00:28:36;;;;;;;47.13;19.50;;;14.00;99.90;;;;;;5019624;28;20518;-54
2021/06/10 00:31:03;;;;;;;45.00;19.70;;;14.00;99.90;;;;;;4990789;28;20232;-56
2021/06/10 00:33:29;;;;;;;56.87;17.20;;;14.00;99.90;;;;;;5023150;28;20272;-55
2021/06/10 00:35:55;;;;;;;81.10;19.50;;;14.00;99.90;;;;;;4998216;28;20502;-55
2021/06/10 00:38:21;;;;;;;47.07;15.67;;;14.00;99.90;;;;;;4991991;28;20455;-54
2021/06/10 00:40:46;;;;;;;71.37;17.47;;;13.90;99.90;;;;;;5010867;28;20199;-56
2021/06/10 00:43:12;;;;;;;54.13;15.97;;;13.90;99.90;;;;;;5029929;28;20180;-56
2021/06/10 00:45:38;;;;;;;70.87;15.57;;;13.90;99.90;;;;;;4999603;28;20532;-56
2021/06/10 00:48:04;;;;;;;42.83;15.00;;;13.80;99.90;;;;;;5026823;28;20199;-56
2021/06/10 00:50:42;;;;;;;34.03;14.07;;;13.90;99.90;;;;;;5020420;28;20455;-56
2021/06/10 00:53:08;;;;;;;25.40;14.60;;;13.90;99.90;;;;;;5008930;28;20916;-56
2021/06/10 00:55:35;;;;;;;35.80;14.97;;;13.90;99.90;;;;;;5024768;28;20472;-54
2021/06/10 00:58:01;;;;;;;34.67;15.30;;;13.80;99.90;;;;;;5011414;28;20435;-54
2021/06/10 01:00:27;;;;;;;34.73;14.47;;;13.80;99.90;;;;;;5008620;28;20781;-55
2021/06/10 01:02:53;;;;;;;34.53;15.93;;;13.80;99.90;;;;;;5018836;28;20191;-56
2021/06/10 01:05:19;;;;;;;31.27;15.00;;;13.80;99.90;;;;;;5022837;28;20184;-55
2021/06/10 01:08:02;;;;;;;31.13;15.10;;;13.80;99.90;;;;;;5016495;28;20458;-56
2021/06/10 01:10:42;;;;;;;29.63;12.33;;;13.80;99.90;;;;;;5028014;28;20210;-56
2021/06/10 01:13:28;;;;;;;19.67;13.10;;;13.80;99.90;;;;;;5028148;28;20382;-56
2021/06/10 01:15:58;;;;;;;21.00;13.90;;;13.80;99.90;;;;;;5024964;28;20449;-54
2021/06/10 01:18:25;;;;;;;43.10;14.80;;;13.80;99.90;;;;;;5008020;28;20529;-55
2021/06/10 01:20:52;;;;;;;35.17;13.10;;;13.80;99.90;;;;;;5026061;28;20480;-56
2021/06/10 01:23:50;;;;;;;37.87;14.40;;;13.80;99.90;;;;;;5007083;28;20489;-55
2021/06/10 01:26:30;;;;;;;23.47;13.50;;;13.80;99.90;;;;;;5002817;28;20492;-54
2021/06/10 01:28:59;;;;;;;109.77;16.37;;;13.70;99.90;;;;;;5026788;28;20445;-56
2021/06/10 01:31:25;;;;;;;27.27;12.70;;;13.70;99.90;;;;;;5027646;28;20410;-56
2021/06/10 01:33:54;;;;;;;40.00;13.37;;;13.70;99.90;;;;;;5014611;28;20435;-53
2021/06/10 01:36:32;;;;;;;20.40;13.70;;;13.60;99.90;;;;;;5015417;28;20438;-54
2021/06/10 01:39:02;;;;;;;19.80;12.60;;;13.60;99.90;;;;;;5002296;28;21024;-55
2021/06/10 01:41:28;;;;;;;22.23;13.93;;;13.60;99.90;;;;;;5012340;28;20431;-55
2021/06/10 01:43:56;;;;;;;50.43;13.63;;;13.60;99.90;;;;;;5025034;28;20417;-55
2021/06/10 01:46:26;;;;;;;37.70;14.00;;;13.60;99.90;;;;;;5027435;28;20482;-55
2021/06/10 01:48:52;;;;;;;27.53;12.37;;;13.60;99.90;;;;;;5010204;28;20517;-55
2021/06/10 01:51:24;;;;;;;99.43;14.13;;;13.60;99.90;;;;;;5007672;28;20546;-54
2021/06/10 01:53:52;;;;;;;24.90;12.10;;;13.60;99.90;;;;;;5000509;28;20435;-56
2021/06/10 01:56:20;;;;;;;35.47;14.27;;;13.60;99.90;;;;;;5022230;28;20465;-54
2021/06/10 01:58:47;;;;;;;54.63;12.93;;;13.50;99.90;;;;;;5021682;28;20482;-56
2021/06/10 02:01:15;;;;;;;45.37;13.63;;;13.50;99.90;;;;;;5007853;28;20955;-54
2021/06/10 02:03:41;;;;;;;27.70;11.77;;;13.50;99.90;;;;;;5014453;28;20434;-54
2021/06/10 02:06:08;;;;;;;51.10;13.17;;;13.50;99.90;;;;;;5019311;28;20434;-55
2021/06/10 02:08:37;;;;;;;62.70;14.10;;;13.50;99.90;;;;;;5006135;28;20442;-55
2021/06/10 02:11:04;;;;;;;28.93;12.27;;;13.50;99.90;;;;;;4996328;28;20546;-54
2021/06/10 02:13:31;;;;;;;28.83;11.83;;;13.50;99.90;;;;;;5018330;28;20431;-55
2021/06/10 02:16:02;;;;;;;87.27;15.47;;;13.50;99.90;;;;;;5028349;28;20404;-55
2021/06/10 02:18:28;;;;;;;58.73;13.57;;;13.40;99.90;;;;;;5027132;28;20488;-56
2021/06/10 02:20:54;;;;;;;18.23;12.93;;;13.50;99.90;;;;;;5026224;28;20450;-55
2021/06/10 02:23:20;;;;;;;55.83;13.13;;;13.50;99.90;;;;;;5007583;28;20258;-55
2021/06/10 02:25:45;;;;;;;40.00;14.10;;;13.50;99.90;;;;;;5016960;28;20764;-54
2021/06/10 02:28:11;;;;;;;41.27;12.07;;;13.40;99.90;;;;;;5026033;28;20198;-55
2021/06/10 02:30:37;;;;;;;22.37;11.53;;;13.40;99.90;;;;;;4997646;28;20197;-54
2021/06/10 02:33:03;;;;;;;41.57;12.83;;;13.40;99.90;;;;;;5007476;28;20168;-54
2021/06/10 02:35:28;;;;;;;27.23;11.97;;;13.40;99.90;;;;;;5007608;28;20168;-55
2021/06/10 02:37:58;;;;;;;18.10;11.67;;;13.40;99.90;;;;;;5016186;28;20279;-55
2021/06/10 02:40:44;;;;;;;40.30;11.53;;;13.40;99.90;;;;;;5022529;28;20207;-55
2021/06/10 02:43:11;;;;;;;45.67;11.43;;;13.30;99.90;;;;;;5004972;28;20846;-55
2021/06/10 02:45:39;;;;;;;69.43;12.13;;;13.30;99.90;;;;;;5020336;28;20466;-55
2021/06/10 02:48:06;;;;;;;24.33;12.10;;;13.30;99.90;;;;;;5026115;28;20477;-55
2021/06/10 02:50:34;;;;;;;34.83;11.37;;;13.30;99.90;;;;;;5027299;28;20453;-55
2021/06/10 02:53:01;;;;;;;29.17;11.90;;;13.30;99.90;;;;;;5017000;28;20426;-55
2021/06/10 02:55:28;;;;;;;49.20;13.43;;;13.20;99.90;;;;;;5023892;28;20434;-54
2021/06/10 02:57:56;;;;;;;34.70;13.30;;;13.20;99.90;;;;;;5030795;28;20949;-56
2021/06/10 03:00:26;;;;;;;77.37;14.57;;;13.20;99.90;;;;;;5030185;28;20418;-56
2021/06/10 03:02:53;;;;;;;47.80;15.03;;;13.20;99.90;;;;;;5023584;28;20468;-55
2021/06/10 03:05:22;;;;;;;38.90;13.53;;;13.20;99.90;;;;;;4995558;28;20557;-55
2021/06/10 03:07:49;;;;;;;33.97;12.67;;;13.10;99.90;;;;;;5027391;28;20603;-54
2021/06/10 03:10:15;;;;;;;25.73;13.47;;;13.10;99.90;;;;;;5029216;28;20450;-54
2021/06/10 03:12:42;;;;;;;30.47;12.67;;;13.10;99.90;;;;;;5021733;28;20462;-55
2021/06/10 03:15:10;;;;;;;33.90;14.10;;;13.10;99.90;;;;;;5018115;28;20419;-54
2021/06/10 03:17:38;;;;;;;20.10;12.87;;;13.10;99.90;;;;;;5008733;28;20730;-55
2021/06/10 03:20:05;;;;;;;42.83;12.73;;;13.10;99.90;;;;;;5027503;28;20560;-54
2021/06/10 03:22:32;;;;;;;26.90;12.40;;;13.10;99.90;;;;;;5030113;28;20726;-54
2021/06/10 03:24:58;;;;;;;23.37;12.63;;;13.10;99.90;;;;;;5011985;28;20537;-53
2021/06/10 03:27:24;;;;;;;23.00;12.83;;;13.10;99.90;;;;;;5000567;28;20524;-54
2021/06/10 03:29:50;;;;;;;69.33;13.40;;;13.10;99.90;;;;;;4992463;28;20550;-54
2021/06/10 03:32:16;;;;;;;25.53;12.87;;;13.10;99.90;;;;;;5015428;28;20802;-55
2021/06/10 03:34:43;;;;;;;42.90;12.17;;;13.10;99.90;;;;;;5010414;28;20168;-55
2021/06/10 03:37:09;;;;;;;66.37;11.77;;;13.10;99.90;;;;;;5020605;28;20827;-54
2021/06/10 03:39:37;;;;;;;22.63;11.00;;;13.00;99.90;;;;;;5028738;28;20442;-55
2021/06/10 03:42:04;;;;;;;28.03;11.40;;;12.90;99.90;;;;;;5031240;28;20450;-55
2021/06/10 03:44:31;;;;;;;17.60;9.63;;;12.90;99.90;;;;;;5007403;28;20461;-54
2021/06/10 03:46:57;;;;;;;21.17;10.80;;;12.90;99.90;;;;;;5011909;28;20798;-55
2021/06/10 03:49:23;;;;;;;19.47;11.87;;;12.90;99.90;;;;;;5011206;28;20455;-55
2021/06/10 03:51:50;;;;;;;17.63;11.60;;;12.90;99.90;;;;;;5024781;28;20227;-55
2021/06/10 03:54:16;;;;;;;16.03;10.47;;;12.90;99.90;;;;;;5029536;28;20241;-55
2021/06/10 03:56:42;;;;;;;26.03;11.00;;;13.00;99.90;;;;;;5028487;28;21048;-56
2021/06/10 03:59:07;;;;;;;23.03;10.87;;;12.90;99.90;;;;;;5012350;28;20196;-55
2021/06/10 04:01:33;;;;;;;35.17;12.10;;;12.90;99.90;;;;;;5017106;28;20203;-55
2021/06/10 04:03:59;;;;;;;41.63;11.93;;;12.90;99.90;;;;;;5016841;28;20184;-52
2021/06/10 04:06:32;;;;;;;55.70;12.10;;;13.00;99.90;;;;;;4994641;28;20196;-52
2021/06/10 04:09:00;;;;;;;39.23;11.83;;;12.90;99.90;;;;;;4994122;28;20450;-52
2021/06/10 04:11:27;;;;;;;34.97;11.40;;;12.90;99.90;;;;;;4996858;28;20484;-51
2021/06/10 04:13:52;;;;;;;56.47;12.00;;;13.00;99.90;;;;;;5014971;28;20430;-53
2021/06/10 04:16:18;;;;;;;56.20;11.83;;;13.00;99.90;;;;;;5021213;28;20426;-53
2021/06/10 04:18:44;;;;;;;88.10;12.60;;;12.90;99.90;;;;;;5021543;28;20203;-54
2021/06/10 04:21:10;;;;;;;69.10;12.60;;;13.00;99.90;;;;;;5026369;28;20204;-54
2021/06/10 04:23:35;;;;;;;41.00;11.87;;;12.90;99.90;;;;;;5017720;28;20798;-55
2021/06/10 04:26:01;;;;;;;52.90;12.00;;;12.90;99.90;;;;;;5017513;28;20183;-53
2021/06/10 04:28:27;;;;;;;22.00;11.50;;;12.90;99.90;;;;;;5022804;28;20207;-54
2021/06/10 04:30:52;;;;;;;20.77;11.90;;;12.90;99.90;;;;;;5024879;28;20222;-53
2021/06/10 04:33:18;;;;;;;48.33;12.77;;;13.00;99.90;;;;;;5015379;28;20180;-54
2021/06/10 04:35:44;;;;;;;14.87;10.93;;;13.00;99.90;;;;;;5006612;28;20195;-54
2021/06/10 04:38:12;;;;;;;20.10;11.03;;;13.00;99.90;;;;;;5015934;28;20223;-55
2021/06/10 04:40:38;;;;;;;21.13;12.67;;;13.10;99.90;;;;;;5000065;28;20293;-51
2021/06/10 04:43:04;;;;;;;30.37;10.60;;;13.10;99.90;;;;;;5015272;28;21105;-53
2021/06/10 04:45:29;;;;;;;18.17;10.37;;;13.10;99.90;;;;;;5018605;28;20184;-55
2021/06/10 04:47:55;;;;;;;16.50;10.63;;;13.00;99.90;;;;;;5007664;28;20279;-53
2021/06/10 04:50:20;;;;;;;22.00;11.20;;;13.10;99.90;;;;;;5018569;28;20266;-53
2021/06/10 04:52:48;;;;;;;30.47;11.37;;;13.10;99.90;;;;;;5011296;28;20208;-52
2021/06/10 04:55:14;;;;;;;64.77;13.20;;;13.10;99.90;;;;;;5015171;28;20255;-54
2021/06/10 04:57:40;;;;;;;22.73;12.30;;;13.10;99.90;;;;;;4998735;28;20623;-55
2021/06/10 05:00:06;;;;;;;27.73;13.87;;;13.10;99.90;;;;;;5018415;28;20492;-55
2021/06/10 05:02:32;;;;;;;20.47;13.67;;;13.10;99.90;;;;;;5014189;28;20581;-54
2021/06/10 05:04:57;;;;;;;18.20;11.83;;;13.10;99.90;;;;;;5018640;28;20517;-53
2021/06/10 05:07:23;;;;;;;34.60;13.70;;;13.10;99.90;;;;;;4993356;28;20599;-55
2021/06/10 05:09:49;;;;;;;34.30;13.30;;;13.20;99.90;;;;;;5012477;28;20228;-55
2021/06/10 05:12:14;;;;;;;31.37;11.97;;;13.20;99.90;;;;;;5023079;28;20206;-54
2021/06/10 05:14:40;;;;;;;60.30;13.70;;;13.20;99.90;;;;;;5002450;28;20179;-54
2021/06/10 05:17:06;;;;;;;76.33;16.27;;;13.20;99.90;;;;;;5026555;28;20207;-54
2021/06/10 05:19:31;;;;;;;33.57;14.30;;;13.20;99.90;;;;;;5023765;28;20239;-55
2021/06/10 05:21:57;;;;;;;114.23;16.60;;;13.20;99.90;;;;;;5022512;28;20203;-53
2021/06/10 05:24:23;;;;;;;64.80;13.87;;;13.20;99.90;;;;;;5015588;28;20712;-54
2021/06/10 05:26:49;;;;;;;73.10;14.87;;;13.20;99.90;;;;;;5022653;28;21137;-54
2021/06/10 05:29:15;;;;;;;94.50;17.13;;;13.20;99.90;;;;;;5000484;28;20537;-53
2021/06/10 05:31:41;;;;;;;49.53;16.73;;;13.20;99.90;;;;;;5001432;28;20530;-53
2021/06/10 05:34:09;;;;;;;64.47;14.33;;;13.20;99.90;;;;;;5013375;28;20179;-55
2021/06/10 05:36:34;;;;;;;55.33;13.40;;;13.20;99.90;;;;;;5019769;28;20283;-54
2021/06/10 05:39:00;;;;;;;47.23;14.57;;;13.20;99.90;;;;;;5017507;28;20542;-55
2021/06/10 05:41:25;;;;;;;64.23;19.73;;;13.20;99.90;;;;;;5007431;28;20192;-55
2021/06/10 05:43:51;;;;;;;43.33;18.53;;;13.20;99.90;;;;;;5014809;28;20183;-54
2021/06/10 05:46:17;;;;;;;45.40;18.47;;;13.20;99.90;;;;;;5022289;28;20186;-55
2021/06/10 05:48:43;;;;;;;44.33;17.20;;;13.20;99.90;;;;;;5018313;28;20202;-55
2021/06/10 05:51:08;;;;;;;40.17;18.20;;;13.30;99.90;;;;;;5016812;28;20352;-54
2021/06/10 05:53:36;;;;;;;29.80;15.43;;;13.40;99.90;;;;;;5014233;28;20714;-53
2021/06/10 05:56:02;;;;;;;23.90;14.03;;;13.40;99.90;;;;;;5015192;28;20176;-53
2021/06/10 05:58:28;;;;;;;48.47;16.40;;;13.50;99.90;;;;;;4997117;28;20910;-53
2021/06/10 06:00:54;;;;;;;53.97;15.10;;;13.50;99.90;;;;;;4993639;28;20570;-53
2021/06/10 06:03:19;;;;;;;35.87;15.90;;;13.60;99.90;;;;;;5014410;28;20172;-51
2021/06/10 06:05:45;;;;;;;29.13;15.70;;;13.60;99.90;;;;;;5013557;28;20180;-54
2021/06/10 06:08:13;;;;;;;35.03;16.97;;;13.60;99.90;;;;;;5017711;28;20552;-53
2021/06/10 06:10:39;;;;;;;33.30;16.33;;;13.70;99.90;;;;;;4994303;28;20573;-53
2021/06/10 06:13:04;;;;;;;32.23;16.43;;;13.70;99.90;;;;;;5012011;28;20522;-54
2021/06/10 06:15:31;;;;;;;29.17;15.20;;;13.80;99.90;;;;;;5016201;28;20310;-54
2021/06/10 06:17:57;;;;;;;35.60;17.30;;;13.80;99.90;;;;;;5008651;28;20680;-54
2021/06/10 06:20:23;;;;;;;26.17;15.57;;;13.90;99.90;;;;;;5012214;28;20947;-54
2021/06/10 06:22:49;;;;;;;33.27;15.30;;;14.00;99.90;;;;;;5017918;28;20418;-54
2021/06/10 06:25:16;;;;;;;25.13;14.97;;;14.00;99.90;;;;;;5018439;28;20454;-54
2021/06/10 06:27:42;;;;;;;28.07;15.20;;;14.10;99.90;;;;;;5000459;28;21018;-53
2021/06/10 06:30:10;;;;;;;22.50;14.00;;;14.10;99.90;;;;;;5012505;28;20461;-53
2021/06/10 06:32:37;;;;;;;27.97;14.63;;;14.20;99.90;;;;;;5015960;28;20601;-54
2021/06/10 06:35:07;;;;;;;33.23;16.17;;;14.20;99.90;;;;;;5020062;28;20545;-53
2021/06/10 06:37:33;;;;;;;36.50;18.43;;;14.20;99.90;;;;;;5001432;28;20472;-53
2021/06/10 06:40:00;;;;;;;50.90;20.03;;;14.30;99.90;;;;;;5020913;28;20434;-54
2021/06/10 06:42:26;;;;;;;42.80;19.90;;;14.40;99.90;;;;;;5014115;28;20437;-54
2021/06/10 06:44:52;;;;;;;38.37;17.67;;;14.50;99.90;;;;;;5019508;28;20542;-54
2021/06/10 06:47:17;;;;;;;69.63;23.63;;;14.60;99.90;;;;;;5014868;28;20207;-54
2021/06/10 06:49:43;;;;;;;69.97;27.90;;;14.70;99.90;;;;;;5017429;28;20696;-54
2021/06/10 06:52:09;;;;;;;61.20;24.70;;;14.80;99.90;;;;;;5021707;28;20279;-53
2021/06/10 06:54:35;;;;;;;51.50;22.93;;;14.90;99.90;;;;;;5019862;28;20224;-55
2021/06/10 06:57:01;;;;;;;52.33;20.87;;;15.00;99.90;;;;;;4999139;28;20333;-53
2021/06/10 06:59:26;;;;;;;38.17;18.77;;;15.10;99.90;;;;;;5017632;28;20453;-52
2021/06/10 07:01:52;;;;;;;32.80;16.50;;;15.20;99.90;;;;;;5023909;28;20588;-54
2021/06/10 07:04:18;;;;;;;30.73;15.93;;;15.30;99.90;;;;;;5016496;28;20564;-54
2021/06/10 07:06:43;;;;;;;23.03;14.50;;;15.30;99.90;;;;;;5020501;28;20604;-54
2021/06/10 07:09:09;;;;;;;21.10;13.37;;;15.30;99.90;;;;;;5019081;28;20587;-55
2021/06/10 07:11:36;;;;;;;17.30;10.90;;;15.30;99.90;;;;;;5015835;28;20685;-55
2021/06/10 07:14:03;;;;;;;27.83;16.30;;;15.30;99.90;;;;;;5011417;28;20279;-53
2021/06/10 07:16:29;;;;;;;26.90;17.83;;;15.30;99.90;;;;;;5007555;28;20951;-54
2021/06/10 07:18:55;;;;;;;26.20;16.50;;;15.40;99.90;;;;;;5025473;28;20508;-51
2021/06/10 07:21:21;;;;;;;34.60;18.83;;;15.50;99.90;;;;;;5023851;28;20865;-54
2021/06/10 07:23:49;;;;;;;32.13;18.87;;;15.60;99.90;;;;;;5021809;28;20265;-54
2021/06/10 07:26:15;;;;;;;34.50;20.57;;;15.70;99.90;;;;;;5003596;28;20444;-52
2021/06/10 07:28:41;;;;;;;31.07;20.47;;;15.90;99.90;;;;;;5019325;28;20830;-54
2021/06/10 07:31:06;;;;;;;29.00;19.00;;;16.10;99.90;;;;;;5023412;28;20455;-53
2021/06/10 07:33:32;;;;;;;20.57;15.20;;;16.20;99.90;;;;;;5015422;28;20184;-54
2021/06/10 07:35:58;;;;;;;22.47;16.10;;;16.40;99.90;;;;;;5015560;28;20188;-54
2021/06/10 07:38:23;;;;;;;21.70;15.00;;;16.60;99.90;;;;;;5014861;28;20207;-53
2021/06/10 07:40:49;;;;;;;22.43;14.70;;;16.70;99.90;;;;;;5015503;28;20188;-54
2021/06/10 07:43:15;;;;;;;21.23;14.60;;;16.80;99.90;;;;;;5019190;28;20256;-53
2021/06/10 07:45:41;;;;;;;19.30;15.17;;;16.80;99.90;;;;;;5017668;28;20253;-53
2021/06/10 07:48:07;;;;;;;21.30;15.00;;;16.80;99.90;;;;;;5025372;28;20457;-54
2021/06/10 07:50:33;;;;;;;26.60;16.90;;;16.90;99.90;;;;;;5023746;28;20270;-54
2021/06/10 07:52:59;;;;;;;21.80;15.40;;;17.00;99.90;;;;;;5018912;28;20438;-53
2021/06/10 07:55:25;;;;;;;23.73;17.10;;;17.10;99.90;;;;;;5018999;28;20431;-55
2021/06/10 07:57:51;;;;;;;23.17;16.97;;;17.30;99.90;;;;;;5018796;28;20477;-54
2021/06/10 08:00:18;;;;;;;25.03;16.43;;;17.50;99.90;;;;;;5015041;28;20859;-53
2021/06/10 08:02:44;;;;;;;23.40;16.20;;;17.70;99.90;;;;;;5001042;28;20435;-52
2021/06/10 08:05:10;;;;;;;22.30;15.93;;;17.80;99.90;;;;;;5016600;28;20411;-53
2021/06/10 08:07:37;;;;;;;23.87;15.70;;;17.90;99.90;;;;;;5019869;28;20215;-53
2021/06/10 08:10:03;;;;;;;16.57;12.80;;;18.10;99.90;;;;;;5027079;28;20469;-52
2021/06/10 08:12:29;;;;;;;20.93;14.40;;;18.10;99.90;;;;;;4999019;28;20960;-54
2021/06/10 08:14:57;;;;;;;16.20;10.67;;;18.20;99.90;;;;;;5002693;28;20544;-53
2021/06/10 08:17:23;;;;;;;18.73;12.57;;;18.30;99.90;;;;;;5017959;28;20182;-53
2021/06/10 08:19:48;;;;;;;18.63;12.97;;;18.50;99.90;;;;;;4996474;28;20451;-53
2021/06/10 08:22:14;;;;;;;16.93;12.93;;;18.60;99.90;;;;;;5014473;28;20259;-53
2021/06/10 08:24:40;;;;;;;12.10;10.47;;;18.80;99.90;;;;;;5014797;28;20208;-54
2021/06/10 08:27:07;;;;;;;16.37;11.37;;;19.00;99.90;;;;;;5022564;28;20249;-55
2021/06/10 08:29:33;;;;;;;14.47;11.13;;;19.10;99.90;;;;;;5016667;28;20266;-55
2021/06/10 08:31:59;;;;;;;12.10;10.33;;;19.20;99.90;;;;;;5022864;28;20853;-55
2021/06/10 08:34:25;;;;;;;17.07;10.90;;;19.20;99.90;;;;;;5017606;28;20266;-54
2021/06/10 08:36:50;;;;;;;14.27;11.43;;;19.30;99.90;;;;;;5011859;28;20184;-53
2021/06/10 08:39:17;;;;;;;18.40;11.77;;;19.40;99.90;;;;;;5008459;28;20967;-57
2021/06/10 08:41:44;;;;;;;13.57;11.20;;;19.50;99.90;;;;;;5013599;28;20415;-55
2021/06/10 08:44:10;;;;;;;13.80;9.63;;;19.60;99.90;;;;;;4999643;28;20855;-56
2021/06/10 08:46:37;;;;;;;12.63;9.73;;;19.70;99.90;;;;;;5013276;28;20486;-55
2021/06/10 08:49:05;;;;;;;11.23;9.80;;;19.90;99.90;;;;;;5011995;28;20263;-56
2021/06/10 08:51:31;;;;;;;16.37;11.87;;;20.00;99.90;;;;;;5012414;28;20455;-56
2021/06/10 08:53:57;;;;;;;12.07;9.77;;;20.10;99.90;;;;;;4991643;28;20442;-56
2021/06/10 08:56:30;;;;;;;9.70;8.60;;;20.10;99.60;;;;;;5012589;28;20446;-54
2021/06/10 08:58:57;;;;;;;10.60;8.93;;;20.20;99.50;;;;;;5009777;28;20192;-54
2021/06/10 09:01:23;;;;;;;14.13;8.60;;;20.30;98.20;;;;;;5015048;28;20845;-56
2021/06/10 09:03:49;;;;;;;11.23;9.60;;;20.40;98.40;;;;;;5012855;28;20430;-56
2021/06/10 09:06:17;;;;;;;9.63;8.63;;;20.60;98.40;;;;;;5019893;28;20231;-56
2021/06/10 09:08:45;;;;;;;8.33;7.47;;;20.60;98.60;;;;;;5010052;28;20524;-54
2021/06/10 09:11:22;;;;;;;9.07;7.93;;;20.50;97.30;;;;;;5011520;28;20729;-55
2021/06/10 09:13:51;;;;;;;16.80;7.87;;;20.40;94.90;;;;;;5016419;28;20477;-54
2021/06/10 09:16:22;;;;;;;9.27;7.47;;;20.30;94.30;;;;;;5011189;28;20442;-54
2021/06/10 09:18:56;;;;;;;8.93;8.03;;;20.20;94.50;;;;;;5036490;23;20591;-61
2021/06/10 09:21:35;;;;;;;13.10;8.10;;;20.20;95.10;;;;;;5054161;28;20436;-61
2021/06/10 09:24:24;;;;;;;10.00;7.70;;;20.30;95.90;;;;;;5042576;28;20432;-62
2021/06/10 09:26:58;;;;;;;10.00;8.03;;;20.50;96.20;;;;;;5059594;28;20429;-60
2021/06/10 09:29:47;;;;;;;9.67;8.23;;;20.50;96.00;;;;;;5053946;28;20850;-61
2021/06/10 09:32:25;;;;;;;8.93;7.60;;;20.50;96.80;;;;;;5042171;28;20426;-62
2021/06/10 09:34:56;;;;;;;10.00;7.57;;;20.60;97.20;;;;;;5041268;28;20876;-59
2021/06/10 09:37:25;;;;;;;10.83;8.90;;;20.90;95.40;;;;;;5041778;28;20524;-60
2021/06/10 09:39:53;;;;;;;11.17;7.57;;;21.00;93.20;;;;;;5043414;28;20490;-61
2021/06/10 09:42:26;;;;;;;13.83;8.37;;;21.10;94.80;;;;;;5034842;28;20433;-62
2021/06/10 09:44:58;;;;;;;9.83;7.37;;;21.10;95.40;;;;;;5042259;28;20516;-61
2021/06/10 09:47:31;;;;;;;10.63;8.00;;;21.30;95.70;;;;;;5039548;28;20426;-62
2021/06/10 09:50:09;;;;;;;9.07;8.17;;;21.50;94.90;;;;;;5025762;28;20473;-60
2021/06/10 09:52:48;;;;;;;11.30;8.83;;;21.60;94.40;;;;;;5040525;28;20429;-61
2021/06/10 09:55:27;;;;;;;10.13;9.07;;;21.50;93.50;;;;;;5043461;28;20425;-61
2021/06/10 09:57:55;;;;;;;10.17;9.07;;;21.50;93.70;;;;;;5041928;28;20432;-62
2021/06/10 10:00:26;;;;;;;12.70;8.90;;;21.70;94.70;;;;;;5040807;28;20446;-61
2021/06/10 10:02:51;;;;;;;9.80;8.30;;;22.00;93.80;;;;;;5038936;28;20524;-61
2021/06/10 10:05:22;;;;;;;9.30;7.97;;;22.20;92.00;;;;;;5037438;28;20848;-61
2021/06/10 10:07:48;;;;;;;9.37;8.37;;;22.30;91.40;;;;;;5040505;28;20682;-60
2021/06/10 10:10:15;;;;;;;9.17;8.07;;;22.30;91.50;;;;;;5027399;28;21017;-60
2021/06/10 10:12:43;;;;;;;11.33;8.30;;;22.20;92.20;;;;;;5041832;28;20428;-60
2021/06/10 10:15:09;;;;;;;8.80;7.93;;;22.10;91.90;;;;;;5043829;28;20421;-61
2021/06/10 10:17:36;;;;;;;10.07;7.63;;;22.00;92.60;;;;;;5042586;28;20433;-61
2021/06/10 10:20:04;;;;;;;7.77;6.97;;;22.30;92.90;;;;;;5043465;28;20466;-59
2021/06/10 10:22:31;;;;;;;8.73;7.17;;;22.60;89.60;;;;;;5040897;28;20461;-60
2021/06/10 10:24:59;;;;;;;8.10;7.13;;;22.90;89.60;;;;;;5039270;28;20429;-60
2021/06/10 10:27:25;;;;;;;8.00;7.20;;;22.90;76.10;;;;;;5043982;28;20431;-60
2021/06/10 10:29:53;;;;;;;8.57;7.47;;;22.80;75.10;;;;;;5040335;28;20469;-60
2021/06/10 10:32:28;;;;;;;8.10;7.20;;;22.80;80.90;;;;;;5044046;28;20167;-61
2021/06/10 10:35:12;;;;;;;8.37;7.37;;;22.80;77.80;;;;;;5043583;28;20774;-60
2021/06/10 10:37:38;;;;;;;8.00;6.70;;;22.70;79.90;;;;;;5040947;28;20953;-60
2021/06/10 10:40:09;;;;;;;8.60;6.63;;;22.80;80.20;;;;;;5043067;28;20460;-60
2021/06/10 10:42:37;;;;;;;9.17;6.90;;;22.70;83.90;;;;;;5041170;28;20664;-60
2021/06/10 10:45:43;;;;;;;7.00;5.30;;;22.40;75.40;;;;;;5044866;28;20422;-61
2021/06/10 10:48:11;;;;;;;7.40;6.50;;;22.20;79.60;;;;;;4936591;29;20471;-61
2021/06/10 10:50:41;;;;;;;7.10;6.13;;;22.10;83.40;;;;;;5016045;28;20469;-60
2021/06/10 10:53:14;;;;;;;10.00;8.03;;;21.90;87.10;;;;;;5026146;28;20421;-60
2021/06/10 10:55:41;;;;;;;14.47;8.03;;;21.70;93.20;;;;;;5044475;28;20433;-61
2021/06/10 10:58:25;;;;;;;10.40;7.93;;;21.50;97.90;;;;;;5043763;28;20425;-60
2021/06/10 11:00:56;;;;;;;9.17;8.07;;;21.30;99.90;;;;;;5041017;28;20498;-61
2021/06/10 11:03:37;;;;;;;11.90;8.83;;;21.10;99.90;;;;;;5042774;28;20904;-60
2021/06/10 11:06:22;;;;;;;14.57;7.80;;;20.90;99.90;;;;;;5037675;28;20433;-61
2021/06/10 11:09:14;;;;;;;10.53;8.90;;;20.60;99.90;;;;;;5021301;28;21136;-60
2021/06/10 11:11:56;;;;;;;10.40;8.40;;;20.40;99.90;;;;;;5043231;28;20460;-61
2021/06/10 11:14:43;;;;;;;11.57;8.17;;;20.20;99.90;;;;;;5036279;28;20421;-61
2021/06/10 11:17:19;;;;;;;12.20;8.17;;;20.20;99.90;;;;;;5029327;28;20457;-61
2021/06/10 11:20:06;;;;;;;9.53;6.67;;;20.50;99.90;;;;;;5042456;28;21252;-61
2021/06/10 11:22:32;;;;;;;7.50;6.70;;;21.00;99.90;;;;;;5042742;28;20473;-61
2021/06/10 11:24:58;;;;;;;7.03;6.33;;;21.40;99.90;;;;;;5046154;28;20877;-61
2021/06/10 11:27:46;;;;;;;9.17;6.30;;;21.80;99.10;;;;;;5036476;28;20463;-61
2021/06/10 11:30:13;;;;;;;5.83;5.23;;;22.10;95.40;;;;;;5046658;28;20461;-61
2021/06/10 11:33:08;;;;;;;8.10;5.83;;;22.30;92.70;;;;;;5046181;28;20887;-61
2021/06/10 11:35:35;;;;;;;8.10;6.53;;;22.70;90.70;;;;;;5043886;28;20425;-61
2021/06/10 11:38:24;;;;;;;6.97;6.33;;;23.00;94.20;;;;;;5045350;28;20432;-58
2021/06/10 11:40:55;;;;;;;6.63;5.90;;;23.30;92.70;;;;;;5041111;28;20911;-60
2021/06/10 11:43:23;;;;;;;6.67;5.90;;;23.70;93.50;;;;;;5043540;28;20437;-61
2021/06/10 11:45:57;;;;;;;5.30;4.80;;;24.00;93.50;;;;;;5045015;28;20529;-61
2021/06/10 11:48:36;;;;;;;4.70;4.30;;;24.30;91.80;;;;;;5044642;28;20444;-61
2021/06/10 11:51:03;;;;;;;6.07;5.40;;;24.40;78.60;;;;;;5041787;28;20551;-60
2021/06/10 11:53:30;;;;;;;5.90;5.40;;;24.30;74.90;;;;;;5042323;28;20457;-61
2021/06/10 11:55:57;;;;;;;7.23;5.07;;;24.00;74.90;;;;;;5042769;28;20433;-61
2021/06/10 11:58:29;;;;;;;5.90;5.40;;;23.60;71.10;;;;;;5026312;28;20433;-61
2021/06/10 12:01:04;;;;;;;4.70;4.30;;;23.40;74.80;;;;;;5030575;28;20431;-61
2021/06/10 12:03:34;;;;;;;5.93;5.00;;;23.10;76.40;;;;;;5039128;28;20433;-60
2021/06/10 12:06:00;;;;;;;6.00;5.40;;;22.80;72.60;;;;;;5044693;28;20491;-61
2021/06/10 12:08:27;;;;;;;5.30;4.80;;;22.60;76.00;;;;;;5027101;28;20516;-60
2021/06/10 12:10:55;;;;;;;5.13;4.70;;;22.40;78.20;;;;;;5045803;28;20195;-61
2021/06/10 12:13:41;;;;;;;5.50;5.00;;;22.20;80.60;;;;;;5034491;28;20465;-61
2021/06/10 12:16:11;;;;;;;6.07;5.13;;;22.10;89.40;;;;;;5032621;28;20431;-62
2021/06/10 12:18:38;;;;;;;6.47;5.60;;;22.00;91.70;;;;;;5045724;28;20449;-63
2021/06/10 12:21:07;;;;;;;6.30;5.47;;;21.90;92.20;;;;;;5037954;28;20511;-62
2021/06/10 12:23:36;;;;;;;5.93;5.33;;;21.80;93.60;;;;;;5041121;28;20529;-62
2021/06/10 12:26:07;;;;;;;6.90;5.37;;;21.70;93.80;;;;;;5038031;28;20422;-61
2021/06/10 12:28:34;;;;;;;6.90;6.20;;;21.70;95.10;;;;;;5046290;28;20433;-61
2021/06/10 12:31:08;;;;;;;9.70;6.00;;;21.70;96.60;;;;;;5028295;28;20825;-61
2021/06/10 12:33:36;;;;;;;6.00;5.50;;;21.70;97.80;;;;;;5042859;28;20764;-61
2021/06/10 12:36:04;;;;;;;5.97;5.37;;;21.80;95.60;;;;;;5047310;28;20492;-61
2021/06/10 12:38:37;;;;;;;7.37;5.40;;;21.80;94.80;;;;;;5046078;28;20406;-61